sensor_id;sensor_type;location;lat;lon;timestamp;pressure;altitude;pressure_sealevel;temperature;humidity
12486;BME280;6307;46.804;11.580;2023-01-26T00:01:15;-20864.66;;;0.44;87.99
12486;BME280;6307;46.804;11.580;2023-01-26T00:03:50;-20861.34;;;0.33;89.07
12486;BME280;6307;46.804;11.580;2023-01-26T00:06:18;-20866.78;;;0.51;87.60
12486;BME280;6307;46.804;11.580;2023-01-26T00:08:47;-20869.19;;;0.59;86.16
12486;BME280;6307;46.804;11.580;2023-01-26T00:11:23;-20870.53;;;0.63;85.65
12486;BME280;6307;46.804;11.580;2023-01-26T00:13:55;-20869.34;;;0.59;86.11
12486;BME280;6307;46.804;11.580;2023-01-26T00:16:24;-20864.38;;;0.43;87.13
12486;BME280;6307;46.804;11.580;2023-01-26T00:18:50;-20867.22;;;0.52;86.36
12486;BME280;6307;46.804;11.580;2023-01-26T00:21:18;-20867.06;;;0.52;86.26
12486;BME280;6307;46.804;11.580;2023-01-26T00:23:46;-20869.34;;;0.59;85.25
12486;BME280;6307;46.804;11.580;2023-01-26T00:26:16;-20862.09;;;0.35;88.07
12486;BME280;6307;46.804;11.580;2023-01-26T00:28:47;-20867.53;;;0.53;88.16
12486;BME280;6307;46.804;11.580;2023-01-26T00:31:15;-20866.47;;;0.50;88.13
12486;BME280;6307;46.804;11.580;2023-01-26T00:33:43;-20868.72;;;0.57;86.36
12486;BME280;6307;46.804;11.580;2023-01-26T00:36:10;-20866.94;;;0.51;90.14
12486;BME280;6307;46.804;11.580;2023-01-26T00:38:37;-20862.09;;;0.35;88.02
12486;BME280;6307;46.804;11.580;2023-01-26T00:41:04;-20859.97;;;0.28;91.39
12486;BME280;6307;46.804;11.580;2023-01-26T00:43:30;-20861.78;;;0.34;90.72
12486;BME280;6307;46.804;11.580;2023-01-26T00:45:57;-20861.78;;;0.34;88.75
12486;BME280;6307;46.804;11.580;2023-01-26T00:48:23;-20864.06;;;0.42;88.18
12486;BME280;6307;46.804;11.580;2023-01-26T00:50:50;-20867.22;;;0.52;89.63
12486;BME280;6307;46.804;11.580;2023-01-26T00:53:16;-20863.59;;;0.40;87.46
12486;BME280;6307;46.804;11.580;2023-01-26T00:55:42;-20870.25;;;0.62;85.86
12486;BME280;6307;46.804;11.580;2023-01-26T00:58:09;-20873.72;;;0.74;85.74
12486;BME280;6307;46.804;11.580;2023-01-26T01:00:37;-20867.69;;;0.54;89.34
12486;BME280;6307;46.804;11.580;2023-01-26T01:03:04;-20865.72;;;0.47;86.24
12486;BME280;6307;46.804;11.580;2023-01-26T01:05:32;-20875.09;;;0.78;83.28
12486;BME280;6307;46.804;11.580;2023-01-26T01:07:58;-20870.53;;;0.63;84.67
12486;BME280;6307;46.804;11.580;2023-01-26T01:10:24;-20872.66;;;0.70;84.17
12486;BME280;6307;46.804;11.580;2023-01-26T01:12:54;-20863.91;;;0.41;92.38
12486;BME280;6307;46.804;11.580;2023-01-26T01:15:20;-20869.03;;;0.58;84.56
12486;BME280;6307;46.804;11.580;2023-01-26T01:17:47;-20868.28;;;0.56;84.20
12486;BME280;6307;46.804;11.580;2023-01-26T01:20:13;-20864.06;;;0.42;86.85
12486;BME280;6307;46.804;11.580;2023-01-26T01:22:40;-20859.06;;;0.25;87.02
12486;BME280;6307;46.804;11.580;2023-01-26T01:25:06;-20867.22;;;0.52;87.76
12486;BME280;6307;46.804;11.580;2023-01-26T01:27:32;-20858.94;;;0.25;85.21
12486;BME280;6307;46.804;11.580;2023-01-26T01:29:58;-20859.69;;;0.27;84.53
12486;BME280;6307;46.804;11.580;2023-01-26T01:32:24;-20854.25;;;0.09;86.68
12486;BME280;6307;46.804;11.580;2023-01-26T01:34:51;-20855.00;;;0.12;85.15
12486;BME280;6307;46.804;11.580;2023-01-26T01:37:17;-20863.31;;;0.39;83.91
12486;BME280;6307;46.804;11.580;2023-01-26T01:39:43;-20854.69;;;0.11;85.85
12486;BME280;6307;46.804;11.580;2023-01-26T01:42:09;-20863.16;;;0.39;83.22
12486;BME280;6307;46.804;11.580;2023-01-26T01:44:37;-20863.16;;;0.39;83.39
12486;BME280;6307;46.804;11.580;2023-01-26T01:47:20;-20858.16;;;0.22;82.42
12486;BME280;6307;46.804;11.580;2023-01-26T01:49:53;-20856.81;;;0.18;82.71
12486;BME280;6307;46.804;11.580;2023-01-26T01:52:23;-20865.25;;;0.46;80.62
12486;BME280;6307;46.804;11.580;2023-01-26T01:54:57;-20859.38;;;0.26;82.59
12486;BME280;6307;46.804;11.580;2023-01-26T01:57:36;-20853.50;;;0.07;84.02
12486;BME280;6307;46.804;11.580;2023-01-26T02:00:29;-20850.63;;;-0.03;85.33
12486;BME280;6307;46.804;11.580;2023-01-26T02:03:03;-20854.25;;;0.09;84.25
12486;BME280;6307;46.804;11.580;2023-01-26T02:08:18;-20847.59;;;-0.13;84.14
12486;BME280;6307;46.804;11.580;2023-01-26T02:10:52;-20846.53;;;-0.16;84.86
12486;BME280;6307;46.804;11.580;2023-01-26T02:13:21;-20843.66;;;-0.25;85.78
12486;BME280;6307;46.804;11.580;2023-01-26T02:15:50;-20845.94;;;-0.18;84.84
12486;BME280;6307;46.804;11.580;2023-01-26T02:18:16;-20844.41;;;-0.23;85.24
12486;BME280;6307;46.804;11.580;2023-01-26T02:20:49;-20850.16;;;-0.04;83.48
12486;BME280;6307;46.804;11.580;2023-01-26T02:26:11;-20851.22;;;-0.01;83.14
12486;BME280;6307;46.804;11.580;2023-01-26T02:28:41;-20847.28;;;-0.13;84.34
12486;BME280;6307;46.804;11.580;2023-01-26T02:31:09;-20841.56;;;-0.32;86.25
12486;BME280;6307;46.804;11.580;2023-01-26T02:33:36;-20837.94;;;-0.44;86.85
12486;BME280;6307;46.804;11.580;2023-01-26T02:36:03;-20832.63;;;-0.62;88.53
12486;BME280;6307;46.804;11.580;2023-01-26T02:38:43;-20843.97;;;-0.24;85.09
12486;BME280;6307;46.804;11.580;2023-01-26T02:41:16;-20838.22;;;-0.43;86.36
12486;BME280;6307;46.804;11.580;2023-01-26T02:44:03;-20837.47;;;-0.46;87.38
12486;BME280;6307;46.804;11.580;2023-01-26T02:46:32;-20843.50;;;-0.26;84.58
12486;BME280;6307;46.804;11.580;2023-01-26T02:48:58;-20843.06;;;-0.28;84.38
12486;BME280;6307;46.804;11.580;2023-01-26T02:51:43;-20843.06;;;-0.28;84.59
12486;BME280;6307;46.804;11.580;2023-01-26T02:54:09;-20845.63;;;-0.19;82.83
12486;BME280;6307;46.804;11.580;2023-01-26T02:56:56;-20843.06;;;-0.28;83.56
12486;BME280;6307;46.804;11.580;2023-01-26T02:59:22;-20848.50;;;-0.10;81.99
12486;BME280;6307;46.804;11.580;2023-01-26T03:01:49;-20840.66;;;-0.35;83.59
12486;BME280;6307;46.804;11.580;2023-01-26T03:04:17;-20845.47;;;-0.19;82.89
12486;BME280;6307;46.804;11.580;2023-01-26T03:06:43;-20843.50;;;-0.26;82.60
12486;BME280;6307;46.804;11.580;2023-01-26T03:09:28;-20842.31;;;-0.30;81.84
12486;BME280;6307;46.804;11.580;2023-01-26T03:11:54;-20845.19;;;-0.20;81.72
12486;BME280;6307;46.804;11.580;2023-01-26T03:14:20;-20847.44;;;-0.13;80.53
12486;BME280;6307;46.804;11.580;2023-01-26T03:16:46;-20836.13;;;-0.50;82.83
12486;BME280;6307;46.804;11.580;2023-01-26T03:19:14;-20834.44;;;-0.56;83.80
12486;BME280;6307;46.804;11.580;2023-01-26T03:21:59;-20846.09;;;-0.17;81.09
12486;BME280;6307;46.804;11.580;2023-01-26T03:24:44;-20844.41;;;-0.23;79.94
12486;BME280;6307;46.804;11.580;2023-01-26T03:27:35;-20839.28;;;-0.40;82.83
12486;BME280;6307;46.804;11.580;2023-01-26T03:30:05;-20832.03;;;-0.64;84.34
12486;BME280;6307;46.804;11.580;2023-01-26T03:32:32;-20836.25;;;-0.50;82.04
12486;BME280;6307;46.804;11.580;2023-01-26T03:34:58;-20835.34;;;-0.53;82.24
12486;BME280;6307;46.804;11.580;2023-01-26T03:37:24;-20842.47;;;-0.29;80.32
12486;BME280;6307;46.804;11.580;2023-01-26T03:39:50;-20841.84;;;-0.31;80.48
12486;BME280;6307;46.804;11.580;2023-01-26T03:42:36;-20840.03;;;-0.37;81.17
12486;BME280;6307;46.804;11.580;2023-01-26T03:45:21;-20843.22;;;-0.27;80.05
12486;BME280;6307;46.804;11.580;2023-01-26T03:48:08;-20837.94;;;-0.44;81.63
12486;BME280;6307;46.804;11.580;2023-01-26T03:50:54;-20835.19;;;-0.53;82.11
12486;BME280;6307;46.804;11.580;2023-01-26T03:53:39;-20840.50;;;-0.36;79.62
12486;BME280;6307;46.804;11.580;2023-01-26T03:56:24;-20844.72;;;-0.22;79.10
12486;BME280;6307;46.804;11.580;2023-01-26T03:59:03;-20839.88;;;-0.38;79.74
12486;BME280;6307;46.804;11.580;2023-01-26T04:01:51;-20837.47;;;-0.46;79.52
12486;BME280;6307;46.804;11.580;2023-01-26T04:04:35;-20837.94;;;-0.44;78.43
12486;BME280;6307;46.804;11.580;2023-01-26T04:07:20;-20846.38;;;-0.17;76.85
12486;BME280;6307;46.804;11.580;2023-01-26T04:10:05;-20844.72;;;-0.22;75.94
12486;BME280;6307;46.804;11.580;2023-01-26T04:12:31;-20838.97;;;-0.41;76.83
12486;BME280;6307;46.804;11.580;2023-01-26T04:14:57;-20838.38;;;-0.43;77.87
12486;BME280;6307;46.804;11.580;2023-01-26T04:17:42;-20843.81;;;-0.25;75.42
12486;BME280;6307;46.804;11.580;2023-01-26T04:20:26;-20838.84;;;-0.41;77.25
12486;BME280;6307;46.804;11.580;2023-01-26T04:23:18;-20834.44;;;-0.56;78.27
12486;BME280;6307;46.804;11.580;2023-01-26T04:25:46;-20835.50;;;-0.52;78.82
12486;BME280;6307;46.804;11.580;2023-01-26T04:28:13;-20839.88;;;-0.38;75.80
12486;BME280;6307;46.804;11.580;2023-01-26T04:30:39;-20836.88;;;-0.48;79.18
12486;BME280;6307;46.804;11.580;2023-01-26T04:33:05;-20830.81;;;-0.68;80.41
12486;BME280;6307;46.804;11.580;2023-01-26T04:35:32;-20832.94;;;-0.61;79.39
12486;BME280;6307;46.804;11.580;2023-01-26T04:37:58;-20832.03;;;-0.64;78.84
12486;BME280;6307;46.804;11.580;2023-01-26T04:40:24;-20839.59;;;-0.39;82.97
12486;BME280;6307;46.804;11.580;2023-01-26T04:42:50;-20826.91;;;-0.81;81.32
12486;BME280;6307;46.804;11.580;2023-01-26T04:45:16;-20837.47;;;-0.46;78.78
12486;BME280;6307;46.804;11.580;2023-01-26T04:47:42;-20841.56;;;-0.32;77.99
12486;BME280;6307;46.804;11.580;2023-01-26T04:50:09;-20832.34;;;-0.63;79.90
12486;BME280;6307;46.804;11.580;2023-01-26T04:52:35;-20838.22;;;-0.43;78.67
12486;BME280;6307;46.804;11.580;2023-01-26T04:55:01;-20838.38;;;-0.43;78.09
12486;BME280;6307;46.804;11.580;2023-01-26T04:57:27;-20836.13;;;-0.50;79.51
12486;BME280;6307;46.804;11.580;2023-01-26T04:59:53;-20831.88;;;-0.64;79.91
12486;BME280;6307;46.804;11.580;2023-01-26T05:02:19;-20834.75;;;-0.55;77.67
12486;BME280;6307;46.804;11.580;2023-01-26T05:04:45;-20834.59;;;-0.55;81.48
12486;BME280;6307;46.804;11.580;2023-01-26T05:07:11;-20838.53;;;-0.42;78.54
12486;BME280;6307;46.804;11.580;2023-01-26T05:09:37;-20832.94;;;-0.61;76.57
12486;BME280;6307;46.804;11.580;2023-01-26T05:12:04;-20837.16;;;-0.47;77.00
12486;BME280;6307;46.804;11.580;2023-01-26T05:14:48;-20838.53;;;-0.42;78.59
12486;BME280;6307;46.804;11.580;2023-01-26T05:17:14;-20835.06;;;-0.54;73.78
12486;BME280;6307;46.804;11.580;2023-01-26T05:19:41;-20838.84;;;-0.41;73.24
12486;BME280;6307;46.804;11.580;2023-01-26T05:22:07;-20838.38;;;-0.43;73.58
12486;BME280;6307;46.804;11.580;2023-01-26T05:24:33;-20828.56;;;-0.75;75.68
12486;BME280;6307;46.804;11.580;2023-01-26T05:26:59;-20832.34;;;-0.63;78.05
12486;BME280;6307;46.804;11.580;2023-01-26T05:29:44;-20831.13;;;-0.67;75.98
12486;BME280;6307;46.804;11.580;2023-01-26T05:32:10;-20832.03;;;-0.64;75.27
12486;BME280;6307;46.804;11.580;2023-01-26T05:34:36;-20828.25;;;-0.76;75.74
12486;BME280;6307;46.804;11.580;2023-01-26T05:37:02;-20832.19;;;-0.63;78.20
12486;BME280;6307;46.804;11.580;2023-01-26T05:39:29;-20834.00;;;-0.57;74.23
12486;BME280;6307;46.804;11.580;2023-01-26T05:41:55;-20831.72;;;-0.65;78.38
12486;BME280;6307;46.804;11.580;2023-01-26T05:44:22;-20829.31;;;-0.73;76.02
12486;BME280;6307;46.804;11.580;2023-01-26T05:46:51;-20828.09;;;-0.77;76.01
12486;BME280;6307;46.804;11.580;2023-01-26T05:49:17;-20831.56;;;-0.65;75.90
12486;BME280;6307;46.804;11.580;2023-01-26T05:51:43;-20829.91;;;-0.71;76.47
12486;BME280;6307;46.804;11.580;2023-01-26T05:54:09;-20832.34;;;-0.63;74.36
12486;BME280;6307;46.804;11.580;2023-01-26T05:56:36;-20826.91;;;-0.81;73.66
12486;BME280;6307;46.804;11.580;2023-01-26T05:59:02;-20831.28;;;-0.66;73.97
12486;BME280;6307;46.804;11.580;2023-01-26T06:01:28;-20823.88;;;-0.91;73.91
12486;BME280;6307;46.804;11.580;2023-01-26T06:03:54;-20829.63;;;-0.72;74.69
12486;BME280;6307;46.804;11.580;2023-01-26T06:06:20;-20826.00;;;-0.84;75.07
12486;BME280;6307;46.804;11.580;2023-01-26T06:08:46;-20832.19;;;-0.63;72.73
12486;BME280;6307;46.804;11.580;2023-01-26T06:11:12;-20827.34;;;-0.79;72.39
12486;BME280;6307;46.804;11.580;2023-01-26T06:13:38;-20829.91;;;-0.71;73.69
12486;BME280;6307;46.804;11.580;2023-01-26T06:16:05;-20826.13;;;-0.83;74.23
12486;BME280;6307;46.804;11.580;2023-01-26T06:18:31;-20827.81;;;-0.78;73.95
12486;BME280;6307;46.804;11.580;2023-01-26T06:20:58;-20825.22;;;-0.86;73.16
12486;BME280;6307;46.804;11.580;2023-01-26T06:23:25;-20825.84;;;-0.84;73.55
12486;BME280;6307;46.804;11.580;2023-01-26T06:25:51;-20826.28;;;-0.83;73.94
12486;BME280;6307;46.804;11.580;2023-01-26T06:28:22;-20831.28;;;-0.66;71.96
12486;BME280;6307;46.804;11.580;2023-01-26T06:30:48;-20823.72;;;-0.91;73.33
12486;BME280;6307;46.804;11.580;2023-01-26T06:33:14;-20826.13;;;-0.83;73.60
12486;BME280;6307;46.804;11.580;2023-01-26T06:35:40;-20829.16;;;-0.73;72.58
12486;BME280;6307;46.804;11.580;2023-01-26T06:38:06;-20825.84;;;-0.84;72.64
12486;BME280;6307;46.804;11.580;2023-01-26T06:40:32;-20830.38;;;-0.69;71.29
12486;BME280;6307;46.804;11.580;2023-01-26T06:42:58;-20830.81;;;-0.68;70.51
12486;BME280;6307;46.804;11.580;2023-01-26T06:45:24;-20831.72;;;-0.65;71.37
12486;BME280;6307;46.804;11.580;2023-01-26T06:47:50;-20824.03;;;-0.90;71.93
12486;BME280;6307;46.804;11.580;2023-01-26T06:50:20;-20834.16;;;-0.57;69.87
12486;BME280;6307;46.804;11.580;2023-01-26T06:52:51;-20829.00;;;-0.74;72.58
12486;BME280;6307;46.804;11.580;2023-01-26T06:55:31;-20821.91;;;-0.97;73.06
12486;BME280;6307;46.804;11.580;2023-01-26T06:58:02;-20819.78;;;-1.04;74.37
12486;BME280;6307;46.804;11.580;2023-01-26T07:00:28;-20824.78;;;-0.88;72.44
12486;BME280;6307;46.804;11.580;2023-01-26T07:02:54;-20814.50;;;-1.22;73.21
12486;BME280;6307;46.804;11.580;2023-01-26T07:05:20;-20818.56;;;-1.08;72.99
12486;BME280;6307;46.804;11.580;2023-01-26T07:07:46;-20815.88;;;-1.17;72.24
12486;BME280;6307;46.804;11.580;2023-01-26T07:10:13;-20818.13;;;-1.10;72.03
12486;BME280;6307;46.804;11.580;2023-01-26T07:12:41;-20817.97;;;-1.10;72.04
12486;BME280;6307;46.804;11.580;2023-01-26T07:15:10;-20822.22;;;-0.96;70.68
12486;BME280;6307;46.804;11.580;2023-01-26T07:17:37;-20823.72;;;-0.91;70.23
12486;BME280;6307;46.804;11.580;2023-01-26T07:20:04;-20819.03;;;-1.07;70.64
12486;BME280;6307;46.804;11.580;2023-01-26T07:22:31;-20823.88;;;-0.91;68.98
12486;BME280;6307;46.804;11.580;2023-01-26T07:24:57;-20819.19;;;-1.06;70.28
12486;BME280;6307;46.804;11.580;2023-01-26T07:27:23;-20819.94;;;-1.04;71.71
12486;BME280;6307;46.804;11.580;2023-01-26T07:29:50;-20815.41;;;-1.19;70.68
12486;BME280;6307;46.804;11.580;2023-01-26T07:32:16;-20818.28;;;-1.09;71.12
12486;BME280;6307;46.804;11.580;2023-01-26T07:34:42;-20815.25;;;-1.19;72.56
12486;BME280;6307;46.804;11.580;2023-01-26T07:37:08;-20815.09;;;-1.20;72.55
12486;BME280;6307;46.804;11.580;2023-01-26T07:39:34;-20816.75;;;-1.14;71.20
12486;BME280;6307;46.804;11.580;2023-01-26T07:42:00;-20811.63;;;-1.31;73.60
12486;BME280;6307;46.804;11.580;2023-01-26T07:44:26;-20814.03;;;-1.23;73.11
12486;BME280;6307;46.804;11.580;2023-01-26T07:46:53;-20820.53;;;-1.02;70.65
12486;BME280;6307;46.804;11.580;2023-01-26T07:49:19;-20810.13;;;-1.36;71.26
12486;BME280;6307;46.804;11.580;2023-01-26T07:51:45;-20811.63;;;-1.31;72.23
12486;BME280;6307;46.804;11.580;2023-01-26T07:54:11;-20823.41;;;-0.92;70.14
12486;BME280;6307;46.804;11.580;2023-01-26T07:56:37;-20817.97;;;-1.10;71.72
12486;BME280;6307;46.804;11.580;2023-01-26T07:59:03;-20818.28;;;-1.09;70.65
12486;BME280;6307;46.804;11.580;2023-01-26T08:01:29;-20816.47;;;-1.15;72.24
12486;BME280;6307;46.804;11.580;2023-01-26T08:03:56;-20821.44;;;-0.99;70.94
12486;BME280;6307;46.804;11.580;2023-01-26T08:06:22;-20824.03;;;-0.90;70.80
12486;BME280;6307;46.804;11.580;2023-01-26T08:08:49;-20819.50;;;-1.05;70.72
12486;BME280;6307;46.804;11.580;2023-01-26T08:11:18;-20813.59;;;-1.25;71.53
12486;BME280;6307;46.804;11.580;2023-01-26T08:13:47;-20821.00;;;-1.00;69.78
12486;BME280;6307;46.804;11.580;2023-01-26T08:16:13;-20829.31;;;-0.73;66.32
12486;BME280;6307;46.804;11.580;2023-01-26T08:18:41;-20833.69;;;-0.58;65.54
12486;BME280;6307;46.804;11.580;2023-01-26T08:21:09;-20833.38;;;-0.59;64.97
12486;BME280;6307;46.804;11.580;2023-01-26T08:23:37;-20834.91;;;-0.54;65.21
12486;BME280;6307;46.804;11.580;2023-01-26T08:26:07;-20830.97;;;-0.67;63.40
12486;BME280;6307;46.804;11.580;2023-01-26T08:28:35;-20835.97;;;-0.51;64.60
12486;BME280;6307;46.804;11.580;2023-01-26T08:31:06;-20836.25;;;-0.50;64.27
12486;BME280;6307;46.804;11.580;2023-01-26T08:33:39;-20838.53;;;-0.42;62.21
12486;BME280;6307;46.804;11.580;2023-01-26T08:36:09;-20837.31;;;-0.46;62.91
12486;BME280;6307;46.804;11.580;2023-01-26T08:38:36;-20839.75;;;-0.38;62.79
12486;BME280;6307;46.804;11.580;2023-01-26T08:41:03;-20842.47;;;-0.29;62.52
12486;BME280;6307;46.804;11.580;2023-01-26T08:43:29;-20837.47;;;-0.46;61.27
12486;BME280;6307;46.804;11.580;2023-01-26T08:45:56;-20839.59;;;-0.39;60.35
12486;BME280;6307;46.804;11.580;2023-01-26T08:48:22;-20851.97;;;0.02;60.83
12486;BME280;6307;46.804;11.580;2023-01-26T08:50:53;-20850.16;;;-0.04;59.67
12486;BME280;6307;46.804;11.580;2023-01-26T08:53:21;-20843.97;;;-0.24;58.89
12486;BME280;6307;46.804;11.580;2023-01-26T08:55:48;-20851.22;;;-0.01;58.66
12486;BME280;6307;46.804;11.580;2023-01-26T08:58:15;-20851.69;;;0.01;58.10
12486;BME280;6307;46.804;11.580;2023-01-26T09:00:41;-20857.41;;;0.20;57.04
12486;BME280;6307;46.804;11.580;2023-01-26T09:03:07;-20858.78;;;0.24;58.34
12486;BME280;6307;46.804;11.580;2023-01-26T09:05:35;-20854.09;;;0.09;57.80
12486;BME280;6307;46.804;11.580;2023-01-26T09:08:04;-20856.19;;;0.16;58.30
12486;BME280;6307;46.804;11.580;2023-01-26T09:10:33;-20856.50;;;0.17;59.93
12486;BME280;6307;46.804;11.580;2023-01-26T09:13:00;-20857.88;;;0.21;59.99
12486;BME280;6307;46.804;11.580;2023-01-26T09:15:28;-20856.66;;;0.17;59.38
12486;BME280;6307;46.804;11.580;2023-01-26T09:17:54;-20858.78;;;0.24;59.03
12486;BME280;6307;46.804;11.580;2023-01-26T09:20:20;-20867.38;;;0.53;58.61
12486;BME280;6307;46.804;11.580;2023-01-26T09:22:46;-20863.16;;;0.39;58.54
12486;BME280;6307;46.804;11.580;2023-01-26T09:25:13;-20871.00;;;0.65;57.38
12486;BME280;6307;46.804;11.580;2023-01-26T09:27:39;-20875.97;;;0.81;58.52
12486;BME280;6307;46.804;11.580;2023-01-26T09:30:07;-20872.34;;;0.69;55.90
12486;BME280;6307;46.804;11.580;2023-01-26T09:32:33;-20881.56;;;1.00;55.14
12486;BME280;6307;46.804;11.580;2023-01-26T09:34:59;-20880.06;;;0.95;55.44
12486;BME280;6307;46.804;11.580;2023-01-26T09:37:26;-20871.31;;;0.66;57.18
12486;BME280;6307;46.804;11.580;2023-01-26T09:39:52;-20880.66;;;0.97;55.28
12486;BME280;6307;46.804;11.580;2023-01-26T09:42:44;-20882.31;;;1.02;55.50
12486;BME280;6307;46.804;11.580;2023-01-26T09:45:32;-20892.44;;;1.36;54.05
12486;BME280;6307;46.804;11.580;2023-01-26T09:48:40;-20890.03;;;1.28;54.50
12486;BME280;6307;46.804;11.580;2023-01-26T09:51:35;-20896.06;;;1.48;53.88
12486;BME280;6307;46.804;11.580;2023-01-26T09:54:18;-20896.22;;;1.48;53.64
12486;BME280;6307;46.804;11.580;2023-01-26T09:56:54;-20893.78;;;1.40;54.09
12486;BME280;6307;46.804;11.580;2023-01-26T09:59:27;-20893.66;;;1.40;52.11
12486;BME280;6307;46.804;11.580;2023-01-26T10:02:09;-20897.13;;;1.51;53.81
12486;BME280;6307;46.804;11.580;2023-01-26T10:05:03;-20890.47;;;1.29;53.64
12486;BME280;6307;46.804;11.580;2023-01-26T10:07:42;-20893.19;;;1.38;53.14
12486;BME280;6307;46.804;11.580;2023-01-26T10:10:14;-20902.41;;;1.69;53.22
12486;BME280;6307;46.804;11.580;2023-01-26T10:12:56;-20905.41;;;1.79;52.12
12486;BME280;6307;46.804;11.580;2023-01-26T10:15:35;-20906.03;;;1.81;51.62
12486;BME280;6307;46.804;11.580;2023-01-26T10:18:07;-20913.13;;;2.04;50.88
12486;BME280;6307;46.804;11.580;2023-01-26T10:20:45;-20909.94;;;1.94;50.69
12486;BME280;6307;46.804;11.580;2023-01-26T10:23:21;-20914.94;;;2.10;50.63
12486;BME280;6307;46.804;11.580;2023-01-26T10:26:12;-20916.88;;;2.17;50.47
12486;BME280;6307;46.804;11.580;2023-01-26T10:28:45;-20911.75;;;2.00;50.84
12486;BME280;6307;46.804;11.580;2023-01-26T10:31:16;-20916.59;;;2.16;51.80
12486;BME280;6307;46.804;11.580;2023-01-26T10:33:53;-20923.06;;;2.37;50.41
12486;BME280;6307;46.804;11.580;2023-01-26T10:36:22;-20923.53;;;2.39;50.19
12486;BME280;6307;46.804;11.580;2023-01-26T10:38:50;-20926.69;;;2.49;50.08
12486;BME280;6307;46.804;11.580;2023-01-26T10:41:22;-20921.25;;;2.31;50.55
12486;BME280;6307;46.804;11.580;2023-01-26T10:49:22;-20929.56;;;2.59;47.27
12486;BME280;6307;46.804;11.580;2023-01-26T10:54:47;-20931.38;;;2.65;47.19
12486;BME280;6307;46.804;11.580;2023-01-26T10:57:25;-20943.13;;;3.04;46.24
12486;BME280;6307;46.804;11.580;2023-01-26T10:59:58;-20942.38;;;3.01;46.24
12486;BME280;6307;46.804;11.580;2023-01-26T11:02:33;-20943.72;;;3.06;47.33
12486;BME280;6307;46.804;11.580;2023-01-26T11:07:33;-20947.19;;;3.17;46.56
12486;BME280;6307;46.804;11.580;2023-01-26T11:10:19;-20948.25;;;3.21;47.46
12486;BME280;6307;46.804;11.580;2023-01-26T11:12:49;-20949.00;;;3.23;46.65
12486;BME280;6307;46.804;11.580;2023-01-26T11:15:21;-20944.94;;;3.10;48.45
12486;BME280;6307;46.804;11.580;2023-01-26T11:20:49;-20953.06;;;3.37;45.72
12486;BME280;6307;46.804;11.580;2023-01-26T11:49:27;-20964.06;;;3.73;44.84
12486;BME280;6307;46.804;11.580;2023-01-26T11:58:50;-20971.16;;;3.97;45.06
12486;BME280;6307;46.804;11.580;2023-01-26T12:01:25;-20975.53;;;4.11;45.07
12486;BME280;6307;46.804;11.580;2023-01-26T12:03:55;-20968.16;;;3.87;44.16
12486;BME280;6307;46.804;11.580;2023-01-26T12:06:35;-20974.91;;;4.09;44.11
12486;BME280;6307;46.804;11.580;2023-01-26T12:09:11;-20981.69;;;4.32;42.88
12486;BME280;6307;46.804;11.580;2023-01-26T12:12:03;-20983.97;;;4.39;43.24
12486;BME280;6307;46.804;11.580;2023-01-26T12:14:43;-20985.47;;;4.44;42.69
12486;BME280;6307;46.804;11.580;2023-01-26T12:17:32;-20987.28;;;4.50;41.25
12486;BME280;6307;46.804;11.580;2023-01-26T12:20:22;-20987.88;;;4.52;40.59
12486;BME280;6307;46.804;11.580;2023-01-26T12:23:08;-20988.78;;;4.55;40.83
12486;BME280;6307;46.804;11.580;2023-01-26T12:25:53;-20994.81;;;4.75;39.90
12486;BME280;6307;46.804;11.580;2023-01-26T12:28:47;-20996.00;;;4.79;39.79
12486;BME280;6307;46.804;11.580;2023-01-26T12:31:40;-20998.25;;;4.87;39.77
12486;BME280;6307;46.804;11.580;2023-01-26T12:34:13;-20996.00;;;4.79;40.33
12486;BME280;6307;46.804;11.580;2023-01-26T12:45:38;-21008.97;;;5.22;40.00
12486;BME280;6307;46.804;11.580;2023-01-26T12:48:21;-21011.53;;;5.31;38.85
12486;BME280;6307;46.804;11.580;2023-01-26T12:51:03;-21002.03;;;4.99;39.60
12486;BME280;6307;46.804;11.580;2023-01-26T12:53:55;-21008.81;;;5.22;39.98
12486;BME280;6307;46.804;11.580;2023-01-26T12:56:40;-21012.88;;;5.35;40.07
12486;BME280;6307;46.804;11.580;2023-01-26T13:01:54;-21016.19;;;5.46;40.08
12486;BME280;6307;46.804;11.580;2023-01-26T13:04:21;-21015.28;;;5.43;40.29
12486;BME280;6307;46.804;11.580;2023-01-26T13:07:01;-21020.84;;;5.62;38.94
12486;BME280;6307;46.804;11.580;2023-01-26T13:09:29;-21019.03;;;5.56;40.01
12486;BME280;6307;46.804;11.580;2023-01-26T13:11:57;-21021.44;;;5.64;39.51
12486;BME280;6307;46.804;11.580;2023-01-26T13:14:59;-21022.34;;;5.67;38.89
12486;BME280;6307;46.804;11.580;2023-01-26T13:17:45;-21025.66;;;5.78;38.72
12486;BME280;6307;46.804;11.580;2023-01-26T13:34:55;-21022.50;;;5.67;39.36
12486;BME280;6307;46.804;11.580;2023-01-26T13:40:35;-21021.00;;;5.62;39.43
12486;BME280;6307;46.804;11.580;2023-01-26T13:43:15;-21025.22;;;5.76;41.46
12486;BME280;6307;46.804;11.580;2023-01-26T13:46:16;-21018.75;;;5.55;40.67
12486;BME280;6307;46.804;11.580;2023-01-26T13:48:52;-21013.63;;;5.38;41.18
12486;BME280;6307;46.804;11.580;2023-01-26T13:51:23;-21017.09;;;5.49;41.35
12486;BME280;6307;46.804;11.580;2023-01-26T13:56:33;-21015.44;;;5.44;42.55
12486;BME280;6307;46.804;11.580;2023-01-26T13:59:15;-21010.91;;;5.29;42.21
12486;BME280;6307;46.804;11.580;2023-01-26T14:01:49;-21013.03;;;5.36;40.77
12486;BME280;6307;46.804;11.580;2023-01-26T14:04:24;-21013.78;;;5.38;42.51
12486;BME280;6307;46.804;11.580;2023-01-26T14:07:04;-21016.94;;;5.49;43.83
12486;BME280;6307;46.804;11.580;2023-01-26T14:09:48;-21011.38;;;5.30;42.55
12486;BME280;6307;46.804;11.580;2023-01-26T14:12:42;-21011.66;;;5.31;43.07
12486;BME280;6307;46.804;11.580;2023-01-26T14:15:25;-21017.25;;;5.50;42.10
12486;BME280;6307;46.804;11.580;2023-01-26T14:17:59;-21020.56;;;5.61;42.25
12486;BME280;6307;46.804;11.580;2023-01-26T14:20:28;-21021.44;;;5.64;43.87
12486;BME280;6307;46.804;11.580;2023-01-26T14:28:34;-21021.59;;;5.64;42.65
12486;BME280;6307;46.804;11.580;2023-01-26T14:33:56;-21029.28;;;5.90;40.34
12486;BME280;6307;46.804;11.580;2023-01-26T14:36:26;-21030.63;;;5.94;40.29
12486;BME280;6307;46.804;11.580;2023-01-26T14:38:56;-21029.88;;;5.92;41.02
12486;BME280;6307;46.804;11.580;2023-01-26T14:41:28;-21029.59;;;5.91;40.78
12486;BME280;6307;46.804;11.580;2023-01-26T14:43:58;-21028.22;;;5.86;43.45
12486;BME280;6307;46.804;11.580;2023-01-26T14:49:40;-21022.06;;;5.66;40.28
12486;BME280;6307;46.804;11.580;2023-01-26T14:52:38;-21018.91;;;5.55;38.96
12486;BME280;6307;46.804;11.580;2023-01-26T14:55:32;-21024.75;;;5.75;37.14